createdAt,value
2023-04-22T00:00:24.275Z,52347.82
2023-04-22T00:02:57.735Z,52343.40
2023-04-22T00:05:30.873Z,52343.00
2023-04-22T00:08:04.776Z,52341.39
2023-04-22T00:10:37.883Z,52362.29
2023-04-22T00:13:10.664Z,52360.28
2023-04-22T00:15:43.550Z,52357.87
2023-04-22T00:18:16.402Z,52343.00
2023-04-22T00:20:49.304Z,52336.98
2023-04-22T00:23:21.932Z,52357.87
2023-04-22T00:25:54.618Z,52342.60
2023-04-22T00:28:27.541Z,52367.51
2023-04-22T00:31:00.411Z,52345.01
2023-04-22T00:33:33.862Z,52362.29
2023-04-22T00:36:07.153Z,52353.85
2023-04-22T00:38:40.024Z,52348.23
2023-04-22T00:41:12.715Z,52361.08
2023-04-22T00:43:45.420Z,52369.12
2023-04-22T00:46:18.914Z,52360.28
2023-04-22T00:48:51.600Z,52348.63
2023-04-22T00:51:24.757Z,52353.45
2023-04-22T00:53:57.804Z,52366.30
2023-04-22T00:56:30.533Z,52343.40
2023-04-22T00:59:03.217Z,52364.30
2023-04-22T01:01:36.327Z,52380.77
2023-04-22T01:04:11.343Z,52357.07
2023-04-22T01:06:44.702Z,52361.09
2023-04-22T01:09:17.982Z,52357.87
2023-04-22T01:11:50.993Z,52358.27
2023-04-22T01:14:23.832Z,52362.29
2023-04-22T01:16:58.198Z,52352.24
2023-04-22T01:19:31.702Z,52371.13
2023-04-22T01:22:04.522Z,52361.48
2023-04-22T01:24:38.120Z,52355.05
2023-04-22T01:27:11.034Z,52353.85
2023-04-22T01:29:43.939Z,52357.87
2023-04-22T01:32:16.876Z,52371.93
2023-04-22T01:34:49.623Z,52370.33
2023-04-22T01:37:24.722Z,52356.66
2023-04-22T01:39:57.373Z,52366.71
2023-04-22T01:42:30.341Z,52364.30
2023-04-22T01:45:03.181Z,52366.31
2023-04-22T01:47:36.545Z,52375.55
2023-04-22T01:50:11.536Z,52351.04
2023-04-22T01:52:44.811Z,52353.05
2023-04-22T01:55:17.684Z,52354.25
2023-04-22T01:57:50.583Z,52348.22
2023-04-22T02:00:23.449Z,52363.90
2023-04-22T02:02:56.824Z,52357.07
2023-04-22T02:05:29.753Z,52355.46
2023-04-22T02:08:02.503Z,52359.88
2023-04-22T02:10:35.366Z,52341.39
2023-04-22T02:13:07.994Z,52361.48
2023-04-22T02:15:43.048Z,52377.96
2023-04-22T02:18:18.259Z,52372.34
2023-04-22T02:20:51.267Z,52355.86
2023-04-22T02:23:25.045Z,52353.45
2023-04-22T02:25:58.246Z,52369.52
2023-04-22T02:28:31.310Z,52356.66
2023-04-22T02:31:04.230Z,52356.66
2023-04-22T02:33:37.849Z,52353.85
2023-04-22T02:36:13.821Z,52365.10
2023-04-22T02:38:47.337Z,52366.71
2023-04-22T02:41:21.025Z,52375.15
2023-04-22T02:43:53.763Z,52358.27
2023-04-22T02:46:26.818Z,52343.00
2023-04-22T02:48:59.745Z,52359.48
2023-04-22T02:51:33.260Z,52361.49
2023-04-22T02:54:06.438Z,52356.26
2023-04-22T02:56:39.125Z,52380.77
2023-04-22T02:59:11.800Z,52383.19
2023-04-22T03:01:44.945Z,52369.12
2023-04-22T03:04:25.855Z,52360.68
2023-04-22T03:06:59.305Z,52356.66
2023-04-22T03:09:31.972Z,52380.38
2023-04-22T03:12:05.165Z,52373.14
2023-04-22T03:14:38.095Z,52377.56
2023-04-22T03:17:11.048Z,52374.75
2023-04-22T03:19:44.119Z,52369.12
2023-04-22T03:22:17.274Z,52384.79
2023-04-22T03:24:52.337Z,52382.38
2023-04-22T03:27:25.296Z,52377.96
2023-04-22T03:29:58.035Z,52366.30
2023-04-22T03:32:31.100Z,52380.38
2023-04-22T03:35:19.390Z,52386.40
2023-04-22T03:37:53.656Z,52378.37
2023-04-22T03:40:36.176Z,52388.01
2023-04-22T03:43:13.339Z,52398.46
2023-04-22T03:45:47.528Z,52374.75
2023-04-22T03:48:25.137Z,52386.40
2023-04-22T03:50:58.707Z,52381.58
2023-04-22T03:53:31.958Z,52380.38
2023-04-22T03:56:05.106Z,52383.59
2023-04-22T03:58:39.433Z,52362.29
2023-04-22T04:01:14.335Z,52363.90
2023-04-22T04:03:49.139Z,52381.58
2023-04-22T04:06:23.200Z,52382.38
2023-04-22T04:08:55.755Z,52393.64
2023-04-22T04:11:28.690Z,52379.57
2023-04-22T04:14:03.805Z,52382.79
2023-04-22T04:16:50.035Z,52375.15
2023-04-22T04:19:30.267Z,52386.00
2023-04-22T04:22:03.434Z,52394.44
2023-04-22T04:24:42.389Z,52377.96
2023-04-22T04:27:19.499Z,52395.65
2023-04-22T04:29:57.395Z,52373.14
2023-04-22T04:32:46.071Z,52368.72
2023-04-22T04:35:20.620Z,52379.57
2023-04-22T04:37:57.875Z,52370.73
2023-04-22T04:40:30.967Z,52380.78
2023-04-22T04:56:01.847Z,52344.21
2023-04-22T04:58:35.770Z,52343.80
2023-04-22T05:01:22.970Z,52363.09
2023-04-22T05:03:56.857Z,52363.09
2023-04-22T05:06:29.943Z,52357.07
2023-04-22T05:09:08.300Z,52365.51
2023-04-22T05:11:43.201Z,52365.51
2023-04-22T05:14:23.710Z,52342.60
2023-04-22T05:16:57.461Z,52358.67
2023-04-22T05:19:30.461Z,52370.33
2023-04-22T05:22:03.149Z,52373.14
2023-04-22T05:24:36.364Z,52363.90
2023-04-22T05:27:09.990Z,52357.87
2023-04-22T05:29:43.055Z,52362.29
2023-04-22T05:32:16.968Z,52355.46
2023-04-22T05:34:49.700Z,52361.09
2023-04-22T05:37:22.307Z,52357.87
2023-04-22T05:39:56.181Z,52363.90
2023-04-22T05:42:29.098Z,52375.55
2023-04-22T05:45:02.198Z,52357.07
2023-04-22T05:47:35.587Z,52359.07
2023-04-22T05:50:10.916Z,52357.87
2023-04-22T05:52:52.220Z,52355.46
2023-04-22T05:55:25.047Z,52359.88
2023-04-22T05:57:58.780Z,52347.42
2023-04-22T06:00:55.268Z,52354.25
2023-04-22T06:03:46.862Z,52363.09
2023-04-22T06:06:19.903Z,52363.49
2023-04-22T06:08:53.327Z,52347.82
2023-04-22T06:11:26.080Z,52343.00
2023-04-22T06:13:59.253Z,52333.76
2023-04-22T06:16:32.024Z,52346.62
2023-04-22T06:19:04.799Z,52349.03
2023-04-22T06:21:40.664Z,52341.80
2023-04-22T06:24:13.457Z,52331.75
2023-04-22T06:26:48.140Z,52343.40
2023-04-22T06:29:20.751Z,52345.01
2023-04-22T06:31:55.159Z,52347.82
2023-04-22T06:34:28.651Z,52338.98
2023-04-22T06:37:02.457Z,52346.21
2023-04-22T06:39:35.208Z,52357.07
2023-04-22T06:42:46.669Z,52334.16
2023-04-22T06:45:37.967Z,52352.24
2023-04-22T06:48:22.538Z,52329.34
2023-04-22T06:51:14.227Z,52316.88
2023-04-22T06:53:47.343Z,52342.20
2023-04-22T06:56:21.792Z,52326.92
2023-04-22T06:58:54.475Z,52341.79
2023-04-22T07:01:27.430Z,52340.59
2023-04-22T07:04:00.243Z,52332.96
2023-04-22T07:06:33.361Z,52331.74
2023-04-22T07:09:07.297Z,52314.87
2023-04-22T07:11:41.379Z,52342.20
2023-04-22T07:14:21.070Z,52326.52
2023-04-22T07:16:54.351Z,52321.30
2023-04-22T07:19:27.274Z,52317.28
2023-04-22T07:22:00.051Z,52330.95
2023-04-22T07:24:32.669Z,52319.29
2023-04-22T07:27:05.726Z,52322.91
2023-04-22T07:29:39.474Z,52320.09
2023-04-22T07:32:12.410Z,52314.07
2023-04-22T07:34:45.137Z,52308.84
2023-04-22T07:37:18.081Z,52306.43
2023-04-22T07:39:50.962Z,52318.09
2023-04-22T07:42:24.048Z,52313.66
2023-04-22T07:44:56.982Z,52340.59
2023-04-22T07:47:29.701Z,52312.05
2023-04-22T07:50:02.643Z,52314.07
2023-04-22T07:52:36.712Z,52301.61
2023-04-22T07:55:11.446Z,52316.88
2023-04-22T07:57:44.282Z,52314.46
2023-04-22T08:00:18.506Z,52314.47
2023-04-22T08:02:52.119Z,52316.88
2023-04-22T08:05:24.883Z,52309.64
2023-04-22T08:07:57.599Z,52323.30
2023-04-22T08:10:30.266Z,52323.71
2023-04-22T08:13:03.186Z,52291.56
2023-04-22T08:15:35.870Z,52307.23
2023-04-22T08:18:08.729Z,52287.95
2023-04-22T08:20:41.432Z,52286.74
2023-04-22T08:23:15.781Z,52272.67
2023-04-22T08:25:48.547Z,52300.80
2023-04-22T08:28:21.341Z,52299.20
2023-04-22T08:30:54.074Z,52284.73
2023-04-22T08:33:27.364Z,52287.14
2023-04-22T08:36:00.182Z,52319.69
2023-04-22T08:38:32.876Z,52292.77
2023-04-22T08:41:05.685Z,52316.07
2023-04-22T08:43:38.725Z,52297.99
2023-04-22T08:46:11.390Z,52299.20
2023-04-22T08:48:44.244Z,52300.00
2023-04-22T08:51:17.770Z,52300.40
2023-04-22T08:53:50.508Z,52295.98
2023-04-22T08:56:24.208Z,52297.99
2023-04-22T08:58:56.862Z,52302.41
2023-04-22T09:01:29.675Z,52298.79
2023-04-22T09:04:02.826Z,52288.75
2023-04-22T09:06:36.217Z,52290.36
2023-04-22T09:09:10.482Z,52300.00
2023-04-22T09:11:44.167Z,52290.35
2023-04-22T09:14:16.792Z,52300.80
2023-04-22T09:16:51.896Z,52284.73
2023-04-22T09:19:27.178Z,52315.67
2023-04-22T09:22:02.515Z,52313.66
2023-04-22T09:24:35.305Z,52298.79
2023-04-22T09:27:07.942Z,52316.48
2023-04-22T09:29:41.360Z,52312.46
2023-04-22T09:32:14.897Z,52301.21
2023-04-22T09:34:54.472Z,52304.82
2023-04-22T09:37:36.112Z,52281.52
2023-04-22T09:40:18.712Z,52296.38
2023-04-22T09:42:55.336Z,52275.48
2023-04-22T09:45:32.621Z,52275.08
2023-04-22T09:48:08.326Z,52263.03
2023-04-22T09:50:41.759Z,52262.23
2023-04-22T09:53:15.756Z,52269.86
2023-04-22T09:55:49.912Z,52258.21
2023-04-22T09:58:25.978Z,52271.47
2023-04-22T10:01:00.439Z,52279.91
2023-04-22T10:03:33.823Z,52264.24
2023-04-22T10:06:07.434Z,52264.64
2023-04-22T10:08:40.042Z,52273.88
2023-04-22T10:11:13.274Z,52276.29
2023-04-22T10:13:47.245Z,52286.34
2023-04-22T10:16:20.003Z,52281.91
2023-04-22T10:18:53.260Z,52281.51
2023-04-22T10:21:27.118Z,52278.30
2023-04-22T10:24:01.285Z,52275.49
2023-04-22T10:26:50.129Z,52298.79
2023-04-22T10:29:23.395Z,52281.11
2023-04-22T10:31:58.515Z,52288.75
2023-04-22T10:34:32.786Z,52285.13
2023-04-22T10:37:11.585Z,52280.31
2023-04-22T10:39:44.648Z,52271.47
2023-04-22T10:42:17.348Z,52276.70
2023-04-22T10:44:51.597Z,52284.73
2023-04-22T10:47:34.643Z,52280.71
2023-04-22T10:50:15.418Z,52271.07
2023-04-22T10:52:49.437Z,52267.04
2023-04-22T10:55:22.806Z,52272.68
2023-04-22T10:57:55.859Z,52283.12
2023-04-22T11:00:45.770Z,52304.42
2023-04-22T11:03:30.565Z,52298.39
2023-04-22T11:06:19.881Z,52277.49
2023-04-22T11:08:53.976Z,52263.43
2023-04-22T11:11:27.107Z,52263.02
2023-04-22T11:13:59.829Z,52258.61
2023-04-22T11:16:32.642Z,52276.70
2023-04-22T11:19:06.225Z,52270.66
2023-04-22T11:21:38.760Z,52266.64
2023-04-22T11:24:12.494Z,52293.16
2023-04-22T11:26:46.432Z,52280.71
2023-04-22T11:29:19.163Z,52282.72
2023-04-22T11:31:52.016Z,52286.34
2023-04-22T11:34:24.633Z,52277.09
2023-04-22T11:36:57.515Z,52286.74
2023-04-22T11:39:47.605Z,52283.93
2023-04-22T11:42:28.825Z,52274.28
2023-04-22T11:45:01.822Z,52261.82
2023-04-22T11:47:35.018Z,52275.48
2023-04-22T11:50:11.124Z,52265.04
2023-04-22T11:52:52.399Z,52259.81
2023-04-22T11:55:35.061Z,52234.89
2023-04-22T11:58:11.149Z,52245.75
2023-04-22T12:00:45.821Z,52229.68
2023-04-22T12:03:20.099Z,52228.47
2023-04-22T12:05:55.291Z,52192.30
2023-04-22T12:08:34.338Z,52194.71
2023-04-22T12:11:08.360Z,52203.55
2023-04-22T12:13:47.067Z,52209.18
2023-04-22T12:16:20.661Z,52179.84
2023-04-22T12:18:53.928Z,52190.29
2023-04-22T12:21:28.661Z,52195.52
2023-04-22T12:24:05.013Z,52171.80
2023-04-22T12:26:39.335Z,52160.55
2023-04-22T12:29:12.462Z,52138.86
2023-04-22T12:31:45.199Z,52145.69
2023-04-22T12:34:17.975Z,52131.62
2023-04-22T12:36:51.521Z,52149.70
2023-04-22T12:39:24.398Z,52162.96
2023-04-22T12:41:57.989Z,52166.99
2023-04-22T12:44:30.678Z,52163.77
2023-04-22T12:47:03.414Z,52183.46
2023-04-22T12:49:36.758Z,52176.23
2023-04-22T12:52:10.131Z,52188.29
2023-04-22T12:54:42.904Z,52173.01
2023-04-22T12:57:15.621Z,52149.70
2023-04-22T12:59:48.858Z,52159.35
2023-04-22T13:02:22.118Z,52172.21
2023-04-22T13:04:55.485Z,52150.11
2023-04-22T13:07:28.339Z,52149.71
2023-04-22T13:10:01.260Z,52136.04
2023-04-22T13:12:34.239Z,52146.09
2023-04-22T13:15:08.208Z,52141.66
2023-04-22T13:17:41.443Z,52156.14
2023-04-22T13:20:15.364Z,52140.06
2023-04-22T13:22:48.677Z,52153.32
2023-04-22T13:25:21.554Z,52159.75
2023-04-22T13:27:54.920Z,52154.13
2023-04-22T13:30:27.881Z,52177.84
2023-04-22T13:33:00.752Z,52156.13
2023-04-22T13:35:33.851Z,52184.66
2023-04-22T13:38:07.622Z,52171.80
2023-04-22T13:40:40.492Z,52175.43
2023-04-22T13:43:13.655Z,52183.05
2023-04-22T13:45:48.767Z,52184.66
2023-04-22T13:48:21.650Z,52193.10
2023-04-22T13:50:54.945Z,52181.05
2023-04-22T13:53:27.957Z,52175.43
2023-04-22T13:56:00.762Z,52182.26
2023-04-22T13:58:34.305Z,52197.52
2023-04-22T14:01:08.054Z,52180.64
2023-04-22T14:03:41.135Z,52192.30
2023-04-22T14:06:14.170Z,52194.71
2023-04-22T14:08:46.929Z,52172.21
2023-04-22T14:11:19.791Z,52172.21
2023-04-22T14:13:52.498Z,52168.59
2023-04-22T14:16:25.271Z,52144.88
2023-04-22T14:18:59.569Z,52158.55
2023-04-22T14:21:32.179Z,52170.60
2023-04-22T14:24:05.129Z,52164.57
2023-04-22T14:26:38.041Z,52166.59
2023-04-22T14:29:11.916Z,52177.83
2023-04-22T14:31:45.356Z,52174.62
2023-04-22T14:34:18.064Z,52173.41
2023-04-22T14:36:51.006Z,52178.23
2023-04-22T14:39:23.811Z,52180.64
2023-04-22T14:41:58.226Z,52177.43
2023-04-22T14:44:31.093Z,52188.28
2023-04-22T14:47:03.694Z,52192.30
2023-04-22T14:49:37.140Z,52183.05
2023-04-22T14:52:11.026Z,52199.54
2023-04-22T14:54:43.604Z,52197.12
2023-04-22T14:57:16.334Z,52187.88
2023-04-22T14:59:48.999Z,52204.76
2023-04-22T15:02:21.903Z,52222.84
2023-04-22T15:04:54.728Z,52216.41
2023-04-22T15:07:27.899Z,52215.21
2023-04-22T15:10:01.164Z,52230.48
2023-04-22T15:12:34.200Z,52219.63
2023-04-22T15:15:08.449Z,52217.22
2023-04-22T15:17:41.425Z,52228.47
2023-04-22T15:20:14.879Z,52220.83
2023-04-22T15:22:47.595Z,52228.87
2023-04-22T15:25:20.268Z,52225.25
2023-04-22T15:27:56.787Z,52238.11
2023-04-22T15:30:29.819Z,52240.12
2023-04-22T15:33:02.477Z,52254.99
2023-04-22T15:35:35.748Z,52250.97
2023-04-22T15:38:09.772Z,52233.29
2023-04-22T15:40:42.559Z,52240.12
2023-04-22T15:43:17.428Z,52265.04
2023-04-22T15:45:50.127Z,52242.54
2023-04-22T15:48:22.882Z,52262.63
2023-04-22T15:50:55.758Z,52257.80
2023-04-22T15:53:28.762Z,52259.01
2023-04-22T15:56:01.739Z,52256.60
2023-04-22T15:58:34.790Z,52266.65
2023-04-22T16:01:18.065Z,52249.77
2023-04-22T16:03:52.977Z,52268.25
2023-04-22T16:06:25.937Z,52274.68
2023-04-22T16:08:59.276Z,52272.67
2023-04-22T16:11:32.128Z,52265.44
2023-04-22T16:14:05.173Z,52274.68
2023-04-22T16:16:39.428Z,52266.65
2023-04-22T16:19:12.660Z,52276.29
2023-04-22T16:21:46.512Z,52276.70
2023-04-22T16:24:19.536Z,52287.95
2023-04-22T16:26:52.391Z,52285.53
2023-04-22T16:29:24.996Z,52297.19
2023-04-22T16:31:58.302Z,52278.70
2023-04-22T16:34:32.247Z,52289.15
2023-04-22T16:37:05.109Z,52297.99
2023-04-22T16:39:38.509Z,52285.93
2023-04-22T16:42:11.917Z,52279.50
2023-04-22T16:44:44.844Z,52283.93
2023-04-22T16:47:17.541Z,52291.56
2023-04-22T16:49:50.211Z,52287.95
2023-04-22T16:52:23.204Z,52291.56
2023-04-22T16:54:55.810Z,52285.13
2023-04-22T16:57:28.512Z,52291.96
2023-04-22T17:00:01.780Z,52292.37
2023-04-22T17:02:35.116Z,52293.57
2023-04-22T17:05:09.810Z,52304.02
2023-04-22T17:07:43.852Z,52298.79
2023-04-22T17:10:16.550Z,52300.40
2023-04-22T17:12:49.869Z,52307.23
2023-04-22T17:15:22.818Z,52300.80
2023-04-22T17:17:55.531Z,52300.80
2023-04-22T17:20:28.664Z,52301.61
2023-04-22T17:23:01.286Z,52298.79
2023-04-22T17:25:34.129Z,52304.02
2023-04-22T17:28:07.222Z,52335.37
2023-04-22T17:30:41.053Z,52316.88
2023-04-22T17:33:14.055Z,52312.46
2023-04-22T17:35:47.124Z,52314.87
2023-04-22T17:38:21.012Z,52316.07
2023-04-22T17:40:54.833Z,52323.71
2023-04-22T17:43:27.711Z,52330.54
2023-04-22T17:46:00.839Z,52327.73
2023-04-22T17:48:33.838Z,52324.52
2023-04-22T17:51:07.673Z,52303.62
2023-04-22T17:53:42.016Z,52314.87
2023-04-22T17:56:15.589Z,52317.68
2023-04-22T17:58:48.608Z,52324.11
2023-04-22T18:01:21.649Z,52333.35
2023-04-22T18:03:54.488Z,52333.76
2023-04-22T18:06:29.242Z,52316.88
2023-04-22T18:09:02.205Z,52305.63
2023-04-22T18:11:35.820Z,52323.30
2023-04-22T18:14:09.246Z,52316.08
2023-04-22T18:16:42.130Z,52318.09
2023-04-22T18:19:15.096Z,52311.65
2023-04-22T18:21:59.203Z,52332.55
2023-04-22T18:24:33.682Z,52316.88
2023-04-22T18:27:06.320Z,52328.54
2023-04-22T18:29:39.375Z,52324.11
2023-04-22T18:32:13.063Z,52324.91
2023-04-22T18:34:46.092Z,52320.49
2023-04-22T18:37:19.197Z,52320.09
2023-04-22T18:39:51.773Z,52336.57
2023-04-22T18:42:24.438Z,52326.12
2023-04-22T18:44:57.376Z,52328.53
2023-04-22T18:47:30.491Z,52338.98
2023-04-22T18:50:03.630Z,52322.91
2023-04-22T18:52:36.992Z,52338.58
2023-04-22T18:55:10.964Z,52329.34
2023-04-22T18:57:43.826Z,52343.80
2023-04-22T19:00:18.275Z,52332.96
2023-04-22T19:02:51.775Z,52343.40
2023-04-22T19:05:29.541Z,52336.57
2023-04-22T19:08:02.521Z,52334.16
2023-04-22T19:10:35.972Z,52338.18
2023-04-22T19:13:15.780Z,52333.75
2023-04-22T19:15:55.790Z,52338.58
2023-04-22T19:18:29.382Z,52331.35
2023-04-22T19:21:03.583Z,52348.63
2023-04-22T19:23:36.988Z,52344.61
2023-04-22T19:26:10.732Z,52322.90
2023-04-22T19:28:47.500Z,52332.15
2023-04-22T19:31:20.281Z,52338.18
2023-04-22T19:33:53.113Z,52328.13
2023-04-22T19:36:25.791Z,52334.56
2023-04-22T19:38:58.680Z,52348.23
2023-04-22T19:41:31.337Z,52334.16
2023-04-22T19:44:04.625Z,52336.17
2023-04-22T19:46:38.473Z,52330.95
2023-04-22T19:49:12.720Z,52334.16
2023-04-22T19:51:45.676Z,52328.93
2023-04-22T19:54:18.555Z,52342.60
2023-04-22T19:56:51.384Z,52333.76
2023-04-22T19:59:24.249Z,52338.18
2023-04-22T20:01:57.659Z,52334.56
2023-04-22T20:04:32.721Z,52334.16
2023-04-22T20:07:05.681Z,52332.55
2023-04-22T20:09:38.468Z,52335.36
2023-04-22T20:12:11.864Z,52333.36
2023-04-22T20:14:45.251Z,52335.36
2023-04-22T20:17:18.811Z,52345.81
2023-04-22T20:19:53.156Z,52345.81
2023-04-22T20:22:26.483Z,52351.04
2023-04-22T20:25:04.016Z,52335.77
2023-04-22T20:27:38.254Z,52344.60
2023-04-22T20:30:13.187Z,52361.09
2023-04-22T20:32:47.008Z,52333.35
2023-04-22T20:35:20.867Z,52352.64
2023-04-22T20:37:53.841Z,52324.51
2023-04-22T20:40:27.120Z,52342.20
2023-04-22T20:43:00.108Z,52342.60
2023-04-22T20:45:33.056Z,52332.95
2023-04-22T20:48:05.823Z,52336.97
2023-04-22T20:50:39.360Z,52341.39
2023-04-22T20:53:12.191Z,52338.98
2023-04-22T20:55:45.795Z,52352.24
2023-04-22T20:58:18.537Z,52349.03
2023-04-22T21:00:51.290Z,52344.21
2023-04-22T21:03:25.497Z,52343.80
2023-04-22T21:05:58.896Z,52342.60
2023-04-22T21:08:32.228Z,52343.80
2023-04-22T21:11:05.758Z,52354.25
2023-04-22T21:13:39.639Z,52353.05
2023-04-22T21:16:13.272Z,52343.00
2023-04-22T21:18:46.601Z,52346.61
2023-04-22T21:21:20.160Z,52348.23
2023-04-22T21:23:55.599Z,52346.62
2023-04-22T21:26:28.781Z,52343.40
2023-04-22T21:29:01.660Z,52337.77
2023-04-22T21:31:34.514Z,52356.66
2023-04-22T21:34:09.922Z,52357.87
2023-04-22T21:36:42.702Z,52349.43
2023-04-22T21:39:15.397Z,52350.64
2023-04-22T21:41:48.408Z,52336.17
2023-04-22T21:44:21.095Z,52351.44
2023-04-22T21:46:53.686Z,52348.23
2023-04-22T21:49:26.303Z,52344.61
2023-04-22T21:51:59.391Z,52357.87
2023-04-22T21:54:32.178Z,52373.95
2023-04-22T21:57:05.214Z,52342.20
2023-04-22T21:59:38.353Z,52366.30
2023-04-22T22:02:11.265Z,52352.65
2023-04-22T22:04:44.377Z,52342.60
2023-04-22T22:07:18.047Z,52357.07
2023-04-22T22:09:50.871Z,52362.69
2023-04-22T22:12:26.193Z,52343.41
2023-04-22T22:14:59.143Z,52350.64
2023-04-22T22:17:32.239Z,52355.05
2023-04-22T22:20:06.782Z,52342.60
2023-04-22T22:22:40.426Z,52352.24
2023-04-22T22:25:15.136Z,52374.75
2023-04-22T22:27:49.556Z,52363.90
2023-04-22T22:30:22.659Z,52358.27
2023-04-22T22:32:55.807Z,52358.68
2023-04-22T22:35:28.531Z,52356.26
2023-04-22T22:38:01.375Z,52362.29
2023-04-22T22:40:34.448Z,52356.66
2023-04-22T22:43:07.301Z,52367.52
2023-04-22T22:45:40.009Z,52365.91
2023-04-22T22:48:13.108Z,52362.69
2023-04-22T22:50:47.025Z,52354.25
2023-04-22T22:53:20.013Z,52357.46
2023-04-22T22:55:52.781Z,52380.38
2023-04-22T22:58:25.934Z,52367.51
2023-04-22T23:00:58.954Z,52363.09
2023-04-22T23:03:32.046Z,52359.07
2023-04-22T23:06:05.314Z,52380.37
2023-04-22T23:08:38.438Z,52381.18
2023-04-22T23:11:11.399Z,52378.37
2023-04-22T23:13:44.245Z,52360.68
2023-04-22T23:16:17.276Z,52366.71
2023-04-22T23:18:50.274Z,52364.30
2023-04-22T23:21:23.373Z,52363.10
2023-04-22T23:23:56.281Z,52348.63
2023-04-22T23:26:30.071Z,52380.78
2023-04-22T23:29:03.448Z,52355.46
2023-04-22T23:31:37.259Z,52365.91
2023-04-22T23:34:10.915Z,52372.74
2023-04-22T23:36:44.119Z,52369.93
2023-04-22T23:39:16.923Z,52381.98
2023-04-22T23:41:49.961Z,52367.51
2023-04-22T23:44:23.456Z,52364.30
2023-04-22T23:46:56.162Z,52369.12
2023-04-22T23:49:29.156Z,52394.44
2023-04-22T23:52:01.920Z,52382.38
2023-04-22T23:54:36.071Z,52366.31
2023-04-22T23:57:10.035Z,52375.95
2023-04-22T23:59:43.676Z,52372.34
